Terminal Aerodrome Forecast
Issued by NWS Cleveland, OH

Home | Current Version | Previous Version | Graphics & Text | Print | Product List | Glossary On
Versions: 1 2 3 4 5 6 7 8 9 10 11 12 13 14 15 16 17 18 19 20 21 22 23 24 25 26 27 28 29 30 31 32 33
146
FTUS41 KCLE 300256 AAA
TAFCLE
TAF AMD
KCLE 300256Z 3003/0106 18008KT P6SM OVC100
     FM300900 16008KT P6SM -SHRA SCT025 OVC045
      TEMPO 3010/3014 5SM -SHRA BR OVC025
     FM301400 16008KT P6SM VCSH BKN020
     FM302000 22012KT P6SM SCT020 BKN100
     FM010400 25014KT P6SM BKN025=

USA.gov is the U.S. government's official web portal to all federal, state and local government web resources and services.